Time;durP1;ratioP1;P1;durP2;ratioP2;P2;SDS_P1;SDS_P2;PMS_P1;PMS_P2;Temp;Humidity;BMP_temperature;BMP_pressure;BME280_temperature;BME280_humidity;BME280_pressure;Samples;Min_cycle;Max_cycle;Signal;HPM_P1;HPM_P2
2023/08/22 00:00:11;;;;;;;4.05;2.65;;;27.70;60.50;28.40;101239.00;;;;5011827;28;20266;-53
2023/08/22 00:02:36;;;;;;;4.82;2.70;;;27.70;60.70;28.40;101235.00;;;;5010534;28;20211;-52
2023/08/22 00:05:03;;;;;;;4.53;3.22;;;27.70;60.80;28.40;101228.00;;;;5010398;28;20326;-53
2023/08/22 00:07:28;;;;;;;3.40;2.80;;;27.70;60.80;28.30;101237.00;;;;5010503;28;20176;-53
2023/08/22 00:09:54;;;;;;;5.38;2.65;;;27.60;60.70;28.30;101230.00;;;;5010566;28;20210;-52
2023/08/22 00:12:20;;;;;;;3.63;2.85;;;27.60;60.70;28.30;101224.00;;;;5009968;28;20183;-53
2023/08/22 00:14:46;;;;;;;3.47;2.90;;;27.60;60.90;28.30;101233.00;;;;5010503;28;20492;-53
2023/08/22 00:17:12;;;;;;;2.95;2.60;;;27.60;60.90;28.30;101228.00;;;;5009962;28;20176;-52
2023/08/22 00:19:39;;;;;;;3.75;2.80;;;27.60;61.00;28.20;101223.00;;;;5010280;28;20224;-53
2023/08/22 00:22:05;;;;;;;4.63;2.70;;;27.60;60.90;28.20;101223.00;;;;5010092;28;20179;-53
2023/08/22 00:24:32;;;;;;;3.72;2.85;;;27.60;61.00;28.20;101219.00;;;;5009112;28;20269;-54
2023/08/22 00:26:58;;;;;;;4.03;2.63;;;27.50;60.90;28.20;101202.00;;;;5013553;28;20183;-53
2023/08/22 00:29:24;;;;;;;5.03;2.78;;;27.50;61.10;28.10;101216.00;;;;5016965;28;20293;-53
2023/08/22 00:31:49;;;;;;;3.17;2.58;;;27.50;61.00;28.10;101212.00;;;;5010275;28;20183;-53
2023/08/22 00:34:15;;;;;;;2.80;2.60;;;27.50;61.10;28.10;101233.00;;;;5010188;28;20195;-53
2023/08/22 00:36:41;;;;;;;5.03;2.97;;;27.50;61.10;28.10;101221.00;;;;5010277;28;20182;-53
2023/08/22 00:39:07;;;;;;;3.50;2.95;;;27.50;61.10;28.10;101219.00;;;;5010080;28;20184;-52
2023/08/22 00:41:33;;;;;;;3.33;2.78;;;27.50;60.90;28.10;101212.00;;;;5012163;28;20744;-52
2023/08/22 00:43:59;;;;;;;4.65;2.80;;;27.40;61.10;28.00;101210.00;;;;5017029;28;20199;-53
2023/08/22 00:46:28;;;;;;;3.10;2.67;;;27.40;61.10;28.00;101214.00;;;;5009674;28;20650;-54
2023/08/22 00:48:54;;;;;;;3.28;2.80;;;27.30;61.20;28.00;101212.00;;;;5008589;28;20199;-54
2023/08/22 00:51:20;;;;;;;3.17;2.75;;;27.40;61.10;28.00;101197.00;;;;5009486;28;20199;-53
2023/08/22 00:53:46;;;;;;;3.30;2.72;;;27.40;61.10;28.00;101203.00;;;;4976022;28;20202;-54
2023/08/22 00:56:12;;;;;;;3.15;2.58;;;27.30;61.10;27.90;101209.00;;;;4992020;28;20522;-54
2023/08/22 00:58:38;;;;;;;4.38;2.75;;;27.30;61.10;27.90;101210.00;;;;5008260;28;20176;-52
2023/08/22 01:01:04;;;;;;;3.75;2.88;;;27.30;61.00;27.90;101207.00;;;;4991736;28;20183;-53
2023/08/22 01:03:29;;;;;;;5.35;2.78;;;27.40;61.30;27.90;101196.00;;;;5009589;28;20376;-54
2023/08/22 01:06:00;;;;;;;3.42;2.83;;;27.30;60.90;27.90;101208.00;;;;5008277;28;20187;-54
2023/08/22 01:08:30;;;;;;;3.40;2.80;;;27.30;61.30;27.80;101202.00;;;;4976390;28;20206;-54
2023/08/22 01:10:56;;;;;;;3.50;2.80;;;27.20;60.70;27.80;101197.00;;;;5007851;28;20195;-54
2023/08/22 01:13:27;;;;;;;3.03;2.72;;;27.20;61.10;27.80;101200.00;;;;5008943;28;20203;-54
2023/08/22 01:15:52;;;;;;;3.00;2.70;;;27.20;61.40;27.80;101178.00;;;;4976311;28;20533;-52
2023/08/22 01:18:18;;;;;;;3.55;2.75;;;27.20;61.10;27.80;101204.00;;;;4975351;28;20270;-53
2023/08/22 01:20:44;;;;;;;4.03;2.40;;;27.20;61.10;27.70;101190.00;;;;5010158;28;20214;-53
2023/08/22 01:23:10;;;;;;;3.88;2.95;;;27.10;61.10;27.70;101186.00;;;;5011245;28;20284;-53
2023/08/22 01:25:35;;;;;;;4.78;2.60;;;27.10;61.30;27.70;101185.00;;;;5009285;28;20179;-53
2023/08/22 01:28:08;;;;;;;3.08;2.78;;;27.10;61.50;27.60;101178.00;;;;5007956;28;20211;-53
2023/08/22 01:30:43;;;;;;;4.45;2.60;;;27.10;61.60;27.60;101182.00;;;;5007542;28;20215;-52
2023/08/22 01:33:21;;;;;;;3.28;2.70;;;27.00;61.50;27.60;101185.00;;;;5008728;28;20832;-53
2023/08/22 01:35:49;;;;;;;3.20;2.70;;;27.00;61.30;27.60;101185.00;;;;4977695;28;20194;-53
2023/08/22 01:38:15;;;;;;;4.95;2.88;;;27.00;61.30;27.60;101192.00;;;;4975846;28;20194;-53
2023/08/22 01:40:40;;;;;;;3.10;2.75;;;27.00;61.30;27.60;101181.00;;;;5007354;28;20586;-53
2023/08/22 01:43:06;;;;;;;3.08;2.65;;;27.00;61.40;27.60;101189.00;;;;4991080;28;20217;-54
2023/08/22 01:45:32;;;;;;;3.35;2.65;;;27.00;61.40;27.50;101186.00;;;;5008698;28;20206;-54
2023/08/22 01:47:58;;;;;;;3.45;2.80;;;27.00;61.40;27.50;101125.00;;;;5008457;28;20665;-53
2023/08/22 01:50:23;;;;;;;4.80;2.72;;;27.00;61.30;27.50;101179.00;;;;5008135;28;20291;-53
2023/08/22 01:52:57;;;;;;;3.03;2.70;;;27.00;61.30;27.50;101189.00;;;;5008200;28;20203;-53
2023/08/22 01:55:23;;;;;;;3.35;2.60;;;26.90;61.40;27.50;101192.00;;;;5007183;28;20172;-54
2023/08/22 01:57:49;;;;;;;3.80;2.80;;;26.90;61.40;27.40;101188.00;;;;5008490;28;20302;-54
2023/08/22 02:00:15;;;;;;;2.92;2.42;;;26.90;61.50;27.40;101173.00;;;;5008071;28;20183;-53
2023/08/22 02:02:41;;;;;;;2.90;2.60;;;26.90;61.50;27.40;101182.00;;;;5008536;28;20557;-53
2023/08/22 02:05:07;;;;;;;3.83;2.70;;;26.80;61.50;27.40;101178.00;;;;5008405;28;20862;-53
2023/08/22 02:07:34;;;;;;;3.08;2.55;;;26.80;61.50;27.30;101182.00;;;;5008507;28;20180;-53
2023/08/22 02:09:59;;;;;;;2.55;2.30;;;26.80;61.30;27.30;101181.00;;;;5008505;28;20211;-53
2023/08/22 02:12:26;;;;;;;5.63;2.88;;;26.80;61.20;27.30;101182.00;;;;5007949;28;20334;-53
2023/08/22 02:14:53;;;;;;;4.13;2.63;;;26.80;61.20;27.30;101184.00;;;;5008501;28;20179;-53
2023/08/22 02:17:19;;;;;;;3.88;2.50;;;26.80;61.10;27.30;101182.00;;;;5008387;28;20199;-53
2023/08/22 02:19:45;;;;;;;3.13;2.53;;;26.70;61.00;27.20;101187.00;;;;5008350;28;20202;-54
2023/08/22 02:22:11;;;;;;;3.97;2.72;;;26.70;61.00;27.20;101189.00;;;;5013017;28;20183;-54
2023/08/22 02:24:36;;;;;;;3.50;2.65;;;26.70;60.90;27.20;101194.00;;;;5008543;28;20183;-53
2023/08/22 02:27:05;;;;;;;4.47;2.50;;;26.70;60.90;27.20;101191.00;;;;5008297;28;20218;-52
2023/08/22 02:29:31;;;;;;;3.10;2.80;;;26.70;60.90;27.20;101188.00;;;;5016422;28;20682;-53
2023/08/22 02:31:57;;;;;;;4.35;2.50;;;26.60;60.90;27.20;101187.00;;;;5017480;28;20207;-53
2023/08/22 02:34:24;;;;;;;2.72;2.50;;;26.60;60.90;27.10;101186.00;;;;5008339;28;20277;-54
2023/08/22 02:36:50;;;;;;;2.78;2.35;;;26.60;60.90;27.10;101183.00;;;;5008113;28;20179;-54
2023/08/22 02:39:16;;;;;;;4.43;2.60;;;26.60;60.90;27.00;101182.00;;;;5008226;28;20171;-54
2023/08/22 02:41:42;;;;;;;2.88;2.40;;;26.50;60.80;27.00;101168.00;;;;5008263;28;20176;-54
2023/08/22 02:44:08;;;;;;;2.78;2.58;;;26.50;60.90;27.00;101172.00;;;;5013871;28;20195;-54
2023/08/22 02:46:33;;;;;;;3.10;2.40;;;26.50;60.90;27.00;101179.00;;;;5015071;28;20190;-53
2023/08/22 02:49:00;;;;;;;4.35;2.45;;;26.50;60.80;27.00;101182.00;;;;5008259;28;20179;-53
2023/08/22 02:51:26;;;;;;;4.25;2.92;;;26.50;60.60;27.00;101175.00;;;;5007872;28;20222;-53
2023/08/22 02:53:52;;;;;;;2.80;2.40;;;26.50;60.70;26.90;101173.00;;;;5008022;28;20286;-53
2023/08/22 02:56:18;;;;;;;3.92;2.63;;;26.50;60.70;26.90;101176.00;;;;5007935;28;20180;-53
2023/08/22 02:58:44;;;;;;;4.38;2.50;;;26.40;60.70;26.90;101176.00;;;;5007984;28;20186;-53
2023/08/22 03:01:10;;;;;;;4.00;2.58;;;26.40;60.70;26.90;101177.00;;;;5008309;28;20195;-53
2023/08/22 03:03:35;;;;;;;3.22;2.63;;;26.40;60.80;26.90;101167.00;;;;5010583;28;20200;-54
2023/08/22 03:06:01;;;;;;;3.17;2.60;;;26.40;60.70;26.80;101172.00;;;;5012960;28;20199;-54
2023/08/22 03:08:27;;;;;;;3.33;2.58;;;26.40;60.70;26.80;101175.00;;;;5013108;28;20181;-54
2023/08/22 03:10:58;;;;;;;2.58;2.38;;;26.40;60.70;26.80;101169.00;;;;5012548;28;20199;-54
2023/08/22 03:13:24;;;;;;;3.40;2.55;;;26.40;60.70;26.80;101172.00;;;;5006013;28;20187;-53
2023/08/22 03:15:50;;;;;;;3.45;2.58;;;26.40;60.70;26.80;101173.00;;;;5013184;28;20187;-54
2023/08/22 03:18:15;;;;;;;3.40;2.47;;;26.30;60.70;26.80;101179.00;;;;5013229;28;20198;-53
2023/08/22 03:20:41;;;;;;;3.17;2.55;;;26.30;60.60;26.70;101167.00;;;;5015151;28;20178;-53
2023/08/22 03:23:07;;;;;;;4.35;2.70;;;26.30;60.70;26.70;101174.00;;;;5013722;28;20202;-54
2023/08/22 03:25:32;;;;;;;3.53;2.70;;;26.30;60.70;26.70;101170.00;;;;5012724;28;20180;-54
2023/08/22 03:27:58;;;;;;;2.88;2.60;;;26.30;60.70;26.70;101159.00;;;;5012711;28;20584;-54
2023/08/22 03:30:24;;;;;;;3.97;2.92;;;26.20;60.60;26.70;101154.00;;;;5012156;28;20249;-56
2023/08/22 03:32:49;;;;;;;3.42;2.65;;;26.30;61.40;26.60;101166.00;;;;5012177;28;20192;-55
2023/08/22 03:35:15;;;;;;;3.40;2.88;;;26.30;61.20;26.60;101168.00;;;;5010999;28;20699;-57
2023/08/22 03:37:41;;;;;;;3.00;2.45;;;26.20;60.70;26.60;101165.00;;;;5012584;28;20194;-56
2023/08/22 03:40:07;;;;;;;5.40;2.72;;;26.20;60.60;26.60;101164.00;;;;5011947;28;20206;-56
2023/08/22 03:42:33;;;;;;;3.50;2.80;;;26.20;60.60;26.60;101169.00;;;;5012399;28;20581;-56
2023/08/22 03:44:59;;;;;;;3.00;2.60;;;26.20;60.50;26.50;101164.00;;;;5012191;28;20183;-56
2023/08/22 03:47:24;;;;;;;3.72;2.72;;;26.20;60.50;26.50;101158.00;;;;5012233;28;20187;-55
2023/08/22 03:49:50;;;;;;;4.82;2.88;;;26.20;60.50;26.50;101161.00;;;;5012006;28;20199;-55
2023/08/22 03:52:16;;;;;;;3.53;2.65;;;26.20;60.60;26.50;101169.00;;;;5011895;28;20172;-55
2023/08/22 03:54:42;;;;;;;2.80;2.60;;;26.20;60.40;26.50;101164.00;;;;5012071;28;20677;-56
2023/08/22 03:57:07;;;;;;;3.95;2.75;;;26.20;60.60;26.50;101167.00;;;;5012002;28;20214;-56
2023/08/22 03:59:33;;;;;;;3.58;2.60;;;26.20;60.60;26.40;101162.00;;;;5012073;28;20184;-56
2023/08/22 04:01:59;;;;;;;4.35;2.63;;;26.10;60.60;26.40;101160.00;;;;5011302;28;20176;-57
2023/08/22 04:04:24;;;;;;;2.83;2.50;;;26.10;60.80;26.40;101162.00;;;;5011547;28;20203;-56
2023/08/22 04:06:50;;;;;;;3.90;2.47;;;26.10;60.90;26.40;101167.00;;;;5011567;28;20184;-55
2023/08/22 04:09:16;;;;;;;3.40;2.65;;;26.00;60.90;26.40;101164.00;;;;5011740;28;20569;-55
2023/08/22 04:11:42;;;;;;;3.10;2.75;;;26.00;60.70;26.40;101167.00;;;;5011587;28;20202;-56
2023/08/22 04:14:08;;;;;;;3.58;2.65;;;26.10;60.70;26.30;101138.00;;;;5010853;28;20302;-56
2023/08/22 04:16:34;;;;;;;3.47;2.40;;;26.00;60.60;26.30;101175.00;;;;5010150;28;20254;-57
2023/08/22 04:18:59;;;;;;;4.22;2.78;;;26.00;60.50;26.30;101159.00;;;;5011377;28;20199;-56
2023/08/22 04:21:25;;;;;;;2.65;2.40;;;26.00;60.80;26.30;101166.00;;;;5014018;28;20238;-57
2023/08/22 04:23:51;;;;;;;2.97;2.67;;;26.00;60.90;26.30;101166.00;;;;5007067;28;20211;-57
2023/08/22 04:26:17;;;;;;;2.75;2.40;;;26.00;60.70;26.30;101156.00;;;;5011368;28;20672;-57
2023/08/22 04:28:43;;;;;;;4.03;2.80;;;26.00;60.60;26.20;101155.00;;;;5011959;28;20210;-55
2023/08/22 04:31:08;;;;;;;3.20;2.50;;;26.00;60.40;26.20;101153.00;;;;5022134;28;20294;-57
2023/08/22 04:33:34;;;;;;;4.35;2.60;;;26.10;60.20;26.20;101159.00;;;;5011443;28;20204;-57
2023/08/22 04:36:00;;;;;;;5.60;2.67;;;26.00;60.20;26.20;101159.00;;;;5010847;28;20179;-57
2023/08/22 04:38:26;;;;;;;3.38;2.55;;;26.10;60.40;26.20;101157.00;;;;5010844;28;20210;-56
2023/08/22 04:40:51;;;;;;;3.03;2.63;;;26.10;60.30;26.20;101160.00;;;;5010713;28;20258;-57
2023/08/22 04:43:17;;;;;;;3.55;2.60;;;26.00;60.30;26.10;101166.00;;;;5011660;28;20223;-57
2023/08/22 04:45:43;;;;;;;4.60;2.50;;;26.00;60.30;25.90;101172.00;;;;5017579;28;20179;-56
2023/08/22 04:48:08;;;;;;;4.75;2.83;;;25.90;60.60;25.90;101175.00;;;;5010585;28;20180;-56
2023/08/22 04:50:35;;;;;;;4.28;2.63;;;25.90;60.70;26.10;101174.00;;;;5010288;28;20212;-56
2023/08/22 04:53:02;;;;;;;5.38;3.08;;;25.80;60.70;26.10;101165.00;;;;5010104;28;20198;-56
2023/08/22 04:55:28;;;;;;;4.53;3.03;;;25.80;60.70;26.00;101164.00;;;;5009244;28;20522;-56
2023/08/22 04:57:53;;;;;;;3.00;2.70;;;25.90;60.80;26.00;101172.00;;;;5010568;28;20182;-56
2023/08/22 05:00:19;;;;;;;4.03;3.10;;;25.90;60.80;26.00;101173.00;;;;5010172;28;20180;-56
2023/08/22 05:02:45;;;;;;;3.75;3.17;;;25.80;60.70;26.00;101168.00;;;;5010467;28;20207;-56
2023/08/22 05:05:11;;;;;;;8.75;3.47;;;25.80;60.70;26.00;101164.00;;;;5010235;28;20183;-56
2023/08/22 05:07:37;;;;;;;2.90;2.63;;;25.70;60.90;26.00;101162.00;;;;5010445;28;20184;-56
2023/08/22 05:10:03;;;;;;;3.92;2.90;;;25.80;61.20;26.00;101168.00;;;;5009985;28;20256;-57
2023/08/22 05:12:29;;;;;;;4.82;3.13;;;25.70;61.30;25.90;101164.00;;;;5009831;28;20221;-56
2023/08/22 05:14:57;;;;;;;4.15;2.95;;;25.70;61.20;25.90;101174.00;;;;5009627;28;20591;-55
2023/08/22 05:17:22;;;;;;;4.25;2.95;;;25.80;61.10;25.90;101167.00;;;;5010022;28;20184;-55
2023/08/22 05:19:48;;;;;;;3.80;2.83;;;25.80;61.00;25.90;101161.00;;;;5009947;28;20186;-56
2023/08/22 05:22:14;;;;;;;5.20;2.92;;;25.80;61.00;25.90;101174.00;;;;5012342;28;20180;-57
2023/08/22 05:24:39;;;;;;;3.70;2.88;;;25.80;61.00;25.90;101176.00;;;;5009797;28;20183;-55
2023/08/22 05:27:05;;;;;;;4.05;2.97;;;25.80;61.10;25.90;101174.00;;;;5008845;28;20697;-55
2023/08/22 05:29:31;;;;;;;4.45;2.72;;;25.70;61.10;25.90;101184.00;;;;5008602;28;20222;-55
2023/08/22 05:31:57;;;;;;;3.95;2.50;;;25.70;61.20;25.90;101104.00;;;;5008490;28;20176;-55
2023/08/22 05:34:22;;;;;;;3.78;2.90;;;25.70;61.60;25.90;101179.00;;;;5009491;28;20215;-56
2023/08/22 05:36:48;;;;;;;3.72;2.78;;;25.70;61.60;25.90;101185.00;;;;5009658;28;20180;-56
2023/08/22 05:39:14;;;;;;;4.10;2.72;;;25.70;61.60;25.80;101180.00;;;;5009606;28;20199;-56
2023/08/22 05:41:39;;;;;;;4.57;2.80;;;25.60;61.60;25.80;101189.00;;;;5009374;28;20183;-56
2023/08/22 05:44:05;;;;;;;3.05;2.60;;;25.60;61.50;25.80;101184.00;;;;5009269;28;20229;-56
2023/08/22 05:46:31;;;;;;;5.85;2.90;;;25.60;61.60;25.80;101176.00;;;;5009536;28;20179;-56
2023/08/22 05:48:56;;;;;;;3.45;2.83;;;25.60;61.80;25.80;101180.00;;;;5009415;28;20210;-55
2023/08/22 05:51:22;;;;;;;3.85;2.85;;;25.60;61.90;25.80;101188.00;;;;5009129;28;20297;-56
2023/08/22 05:53:48;;;;;;;6.10;3.03;;;25.60;61.90;25.80;101193.00;;;;5007790;28;20634;-56
2023/08/22 05:56:13;;;;;;;3.78;2.75;;;25.60;62.00;25.80;101182.00;;;;5009093;28;20180;-56
2023/08/22 05:58:39;;;;;;;4.50;2.92;;;25.60;62.10;25.70;101188.00;;;;5009532;28;20214;-56
2023/08/22 06:01:11;;;;;;;3.17;2.80;;;25.60;62.20;25.70;101193.00;;;;5009240;28;20183;-56
2023/08/22 06:03:38;;;;;;;3.58;2.67;;;25.50;62.20;25.70;101118.00;;;;5008114;28;20203;-56
2023/08/22 06:06:04;;;;;;;3.40;2.80;;;25.50;62.30;25.70;101188.00;;;;5009455;28;20191;-56
2023/08/22 06:08:30;;;;;;;3.75;2.65;;;25.50;62.30;25.70;101190.00;;;;5009087;28;20175;-55
2023/08/22 06:10:56;;;;;;;2.88;2.67;;;25.50;62.30;25.70;101189.00;;;;5007510;28;20203;-56
2023/08/22 06:13:22;;;;;;;3.67;2.97;;;25.50;62.50;25.70;101192.00;;;;5008587;28;20227;-55
2023/08/22 06:15:48;;;;;;;4.20;2.90;;;25.50;62.50;25.70;101194.00;;;;5009138;28;20172;-57
2023/08/22 06:18:14;;;;;;;3.10;2.80;;;25.50;62.50;25.70;101193.00;;;;5009098;28;20545;-57
2023/08/22 06:20:39;;;;;;;2.95;2.72;;;25.50;62.60;25.70;101150.00;;;;5010859;28;20599;-56
2023/08/22 06:23:05;;;;;;;5.63;2.90;;;25.50;62.80;25.70;101187.00;;;;5009450;28;20196;-57
2023/08/22 06:25:32;;;;;;;3.40;2.95;;;25.50;62.90;25.60;101185.00;;;;5009122;28;20262;-57
2023/08/22 06:27:58;;;;;;;3.50;3.10;;;25.50;63.00;25.60;101186.00;;;;5008174;28;20179;-55
2023/08/22 06:30:24;;;;;;;4.53;3.00;;;25.40;63.00;25.60;101195.00;;;;5016441;28;20226;-57
2023/08/22 06:32:50;;;;;;;4.63;3.20;;;25.40;63.10;25.60;101205.00;;;;5012819;28;20218;-56
2023/08/22 06:35:16;;;;;;;3.78;3.30;;;25.50;63.40;25.60;101198.00;;;;5008937;28;20655;-57
2023/08/22 06:37:41;;;;;;;4.95;3.25;;;25.50;63.40;25.60;101190.00;;;;5011348;28;20187;-54
2023/08/22 06:40:08;;;;;;;3.45;3.13;;;25.40;63.50;25.60;101182.00;;;;5013103;28;20666;-56
2023/08/22 06:42:34;;;;;;;4.07;3.15;;;25.40;63.70;25.60;101196.00;;;;5013583;28;20207;-56
2023/08/22 06:45:00;;;;;;;5.50;3.47;;;25.30;63.80;25.60;101201.00;;;;5017389;28;20314;-55
2023/08/22 06:47:25;;;;;;;6.22;3.40;;;25.40;64.10;25.60;101196.00;;;;5015982;28;20179;-55
2023/08/22 06:49:51;;;;;;;6.00;3.40;;;25.30;64.10;25.60;101208.00;;;;5012762;28;20253;-55
2023/08/22 06:52:18;;;;;;;4.22;3.42;;;25.30;64.20;25.60;101202.00;;;;5011488;28;20275;-56
2023/08/22 06:54:44;;;;;;;4.00;3.60;;;25.40;64.30;25.60;101203.00;;;;5012551;28;20210;-55
2023/08/22 06:57:09;;;;;;;5.45;3.28;;;25.30;64.30;25.60;101203.00;;;;5011723;28;20203;-55
2023/08/22 06:59:35;;;;;;;3.80;3.45;;;25.40;64.60;25.50;101209.00;;;;5012341;28;20180;-56
2023/08/22 07:02:01;;;;;;;4.20;3.80;;;25.30;64.60;25.50;101206.00;;;;5009208;28;20171;-55
2023/08/22 07:04:28;;;;;;;3.92;3.50;;;25.30;65.00;25.50;101203.00;;;;5011875;28;20210;-56
2023/08/22 07:06:54;;;;;;;5.28;4.38;;;25.30;65.00;25.50;101209.00;;;;5011538;28;20172;-55
2023/08/22 07:09:20;;;;;;;4.00;3.60;;;25.30;65.10;25.50;101210.00;;;;5012926;28;20683;-57
2023/08/22 07:11:45;;;;;;;5.05;4.00;;;25.30;65.20;25.50;101208.00;;;;5012796;28;20187;-55
2023/08/22 07:14:11;;;;;;;6.57;3.97;;;25.20;65.30;25.50;101212.00;;;;5009913;28;20199;-55
2023/08/22 07:16:37;;;;;;;6.35;4.57;;;25.30;65.60;25.50;101210.00;;;;5011193;28;20164;-55
2023/08/22 07:19:02;;;;;;;4.78;3.83;;;25.20;66.00;25.50;101218.00;;;;5011173;28;20678;-55
2023/08/22 07:21:28;;;;;;;5.15;4.35;;;25.20;66.70;25.50;101214.00;;;;5008749;28;20207;-55
2023/08/22 07:23:55;;;;;;;5.45;4.25;;;25.30;66.50;25.50;101210.00;;;;5011002;28;20191;-55
2023/08/22 07:26:21;;;;;;;5.07;4.15;;;25.30;66.70;25.40;101217.00;;;;5011106;28;20567;-55
2023/08/22 07:28:46;;;;;;;4.53;3.90;;;25.20;66.40;25.40;101185.00;;;;5011036;28;20200;-55
2023/08/22 07:31:12;;;;;;;5.63;3.83;;;25.20;66.60;25.40;101217.00;;;;5010446;28;20293;-55
2023/08/22 07:33:38;;;;;;;5.68;4.38;;;25.20;66.90;25.40;101220.00;;;;5010928;28;20278;-55
2023/08/22 07:36:03;;;;;;;4.88;4.20;;;25.20;66.90;25.40;101212.00;;;;5010965;28;20189;-56
2023/08/22 07:38:29;;;;;;;5.13;3.90;;;25.20;67.40;25.40;101206.00;;;;5010959;28;20562;-55
2023/08/22 07:40:55;;;;;;;6.93;4.78;;;25.20;67.30;25.40;101208.00;;;;5010578;28;20171;-55
2023/08/22 07:43:21;;;;;;;4.45;3.83;;;25.20;67.40;25.40;101207.00;;;;5011554;28;20227;-55
2023/08/22 07:45:46;;;;;;;7.72;4.55;;;25.20;67.50;25.40;101224.00;;;;5010956;28;20199;-55
2023/08/22 07:48:12;;;;;;;4.30;3.90;;;25.20;67.60;25.40;101227.00;;;;5011048;28;20211;-55
2023/08/22 07:50:38;;;;;;;5.32;4.10;;;25.20;67.70;25.40;101227.00;;;;5011266;28;20261;-55
2023/08/22 07:53:05;;;;;;;4.90;4.40;;;25.20;67.60;25.40;101229.00;;;;5011394;28;20905;-55
2023/08/22 07:55:31;;;;;;;5.40;4.30;;;25.20;67.60;25.40;101225.00;;;;5011782;28;20187;-56
2023/08/22 07:57:57;;;;;;;5.60;4.53;;;25.20;67.70;25.40;101232.00;;;;5011578;28;20651;-55
2023/08/22 08:00:22;;;;;;;6.57;5.35;;;25.20;68.20;25.40;101229.00;;;;5011356;28;20670;-55
2023/08/22 08:02:49;;;;;;;6.25;4.85;;;25.20;68.40;25.30;101240.00;;;;5011495;28;20282;-55
2023/08/22 08:05:15;;;;;;;6.60;4.95;;;25.20;68.40;25.40;101241.00;;;;5009676;28;20289;-55
2023/08/22 08:07:41;;;;;;;5.93;4.68;;;25.10;68.40;25.30;101239.00;;;;5011365;28;20630;-56
2023/08/22 08:10:07;;;;;;;5.22;4.30;;;25.20;68.80;25.30;101230.00;;;;5010909;28;20697;-56
2023/08/22 08:12:33;;;;;;;5.88;5.13;;;25.10;68.70;25.40;101237.00;;;;4991651;28;20205;-56
2023/08/22 08:14:59;;;;;;;4.25;3.58;;;25.20;68.50;25.40;101242.00;;;;5010500;28;20175;-55
2023/08/22 08:17:25;;;;;;;6.20;4.13;;;25.10;68.30;25.40;101246.00;;;;5011331;28;20187;-56
2023/08/22 08:19:51;;;;;;;7.50;4.32;;;25.00;68.30;25.40;101246.00;;;;5010884;28;20552;-52
2023/08/22 08:22:17;;;;;;;4.70;4.13;;;25.00;68.40;25.40;101243.00;;;;5012779;28;20175;-53
2023/08/22 08:24:43;;;;;;;5.00;3.78;;;25.00;68.80;25.40;101249.00;;;;5010819;28;20187;-52
2023/08/22 08:27:08;;;;;;;5.50;4.10;;;25.00;69.30;25.40;101252.00;;;;5010948;28;20801;-51
2023/08/22 08:29:34;;;;;;;4.22;3.60;;;25.00;69.20;25.40;101253.00;;;;5011303;28;20229;-53
2023/08/22 08:32:00;;;;;;;4.82;3.80;;;25.00;69.20;25.40;101249.00;;;;5011520;28;20172;-51
2023/08/22 08:34:26;;;;;;;5.20;3.50;;;25.00;69.20;25.40;101250.00;;;;5020217;28;20669;-52
2023/08/22 08:36:52;;;;;;;6.35;3.90;;;25.10;69.40;25.50;101243.00;;;;5010340;28;20234;-52
2023/08/22 08:39:17;;;;;;;4.43;3.72;;;25.10;69.40;25.50;101238.00;;;;5010861;28;20255;-52
2023/08/22 08:41:59;;;;;;;5.95;3.53;;;25.10;69.40;25.60;101252.00;;;;5010413;28;20180;-52
2023/08/22 08:44:25;;;;;;;5.43;3.60;;;25.10;69.20;25.60;101242.00;;;;5009964;28;20199;-52
2023/08/22 08:46:51;;;;;;;4.03;3.00;;;25.10;69.40;25.60;101243.00;;;;4977983;28;20270;-52
2023/08/22 08:49:17;;;;;;;5.82;3.50;;;25.20;69.40;25.60;101247.00;;;;5020077;28;20754;-52
2023/08/22 08:51:43;;;;;;;5.60;3.47;;;25.20;69.40;25.70;101246.00;;;;5010624;28;20231;-52
2023/08/22 08:54:09;;;;;;;4.45;3.20;;;25.20;69.40;25.70;101251.00;;;;5010252;28;20219;-52
2023/08/22 08:56:35;;;;;;;5.85;3.60;;;25.20;69.60;25.70;101259.00;;;;4993170;28;20187;-52
2023/08/22 08:59:01;;;;;;;7.45;3.20;;;25.30;69.60;25.70;101255.00;;;;5010240;28;20784;-53
2023/08/22 09:01:26;;;;;;;3.78;3.28;;;25.30;69.50;25.70;101255.00;;;;5008626;28;20191;-52
2023/08/22 09:03:52;;;;;;;6.20;3.50;;;25.30;69.50;25.80;101257.00;;;;5009918;28;20262;-52
2023/08/22 09:06:20;;;;;;;8.82;4.00;;;25.30;69.80;25.80;101261.00;;;;5010246;28;20265;-52
2023/08/22 09:09:03;;;;;;;8.43;3.40;;;25.40;69.60;25.80;101259.00;;;;5010051;28;20187;-53
2023/08/22 09:11:29;;;;;;;10.52;4.05;;;25.40;70.00;25.80;101254.00;;;;5009574;28;20204;-52
2023/08/22 09:13:55;;;;;;;7.30;3.78;;;25.40;70.10;25.90;101246.00;;;;5008652;28;20195;-52
2023/08/22 09:16:24;;;;;;;5.75;3.53;;;25.40;70.30;25.90;101253.00;;;;5008400;28;20187;-52
2023/08/22 09:18:49;;;;;;;6.20;3.63;;;25.40;69.90;25.90;101259.00;;;;5009925;28;20202;-52
2023/08/22 09:21:16;;;;;;;5.60;3.28;;;25.40;69.90;25.90;101249.00;;;;5011675;28;20435;-52
2023/08/22 09:23:42;;;;;;;6.03;3.60;;;25.50;70.00;25.90;101258.00;;;;5009858;28;20244;-54
2023/08/22 09:26:10;;;;;;;7.18;3.60;;;25.40;70.30;25.90;101255.00;;;;5010025;28;20188;-54
2023/08/22 09:28:42;;;;;;;7.32;3.53;;;25.50;70.10;26.00;101263.00;;;;5009395;28;20203;-54
2023/08/22 09:31:07;;;;;;;5.90;3.90;;;25.50;70.40;26.00;101257.00;;;;5009257;28;20475;-53
2023/08/22 09:33:46;;;;;;;6.90;3.72;;;25.50;70.50;26.00;101250.00;;;;5009731;28;20200;-54
2023/08/22 09:36:11;;;;;;;6.43;3.63;;;25.50;70.30;26.00;101252.00;;;;5008258;28;20650;-53
2023/08/22 09:38:57;;;;;;;5.35;3.40;;;25.50;70.30;26.00;101257.00;;;;5009899;28;20187;-53
2023/08/22 09:41:25;;;;;;;6.65;3.40;;;25.50;70.50;26.00;101251.00;;;;5009183;28;20402;-53
2023/08/22 09:43:58;;;;;;;4.63;3.42;;;25.50;70.40;26.00;101256.00;;;;5009485;28;20719;-51
2023/08/22 09:46:24;;;;;;;5.05;3.20;;;25.50;70.50;26.00;101251.00;;;;5009912;28;20203;-52
2023/08/22 09:48:50;;;;;;;5.70;3.40;;;25.50;70.70;26.00;101253.00;;;;5009615;28;20191;-52
2023/08/22 09:51:20;;;;;;;3.90;3.50;;;25.50;70.80;26.00;101243.00;;;;5008041;28;20334;-51
2023/08/22 09:53:51;;;;;;;6.50;3.30;;;25.50;71.20;26.10;101249.00;;;;5009849;28;20265;-52
2023/08/22 09:56:20;;;;;;;3.30;3.00;;;25.60;71.20;26.10;101231.00;;;;5009332;28;20179;-53
2023/08/22 09:58:46;;;;;;;5.28;3.50;;;25.50;71.10;26.10;101230.00;;;;5008201;28;20188;-52
2023/08/22 10:01:14;;;;;;;4.18;3.35;;;25.50;71.30;26.10;101237.00;;;;5008700;28;20184;-52
2023/08/22 10:03:40;;;;;;;4.03;3.10;;;25.50;71.50;26.10;101231.00;;;;4992072;28;20222;-53
2023/08/22 10:06:12;;;;;;;6.63;3.70;;;25.50;71.30;26.10;101244.00;;;;5009496;28;20194;-52
2023/08/22 10:08:46;;;;;;;5.10;3.40;;;25.50;71.40;26.20;101239.00;;;;5009610;28;20234;-52
2023/08/22 10:11:12;;;;;;;4.95;3.30;;;25.60;72.20;26.20;101238.00;;;;5007414;28;20212;-53
2023/08/22 10:13:38;;;;;;;6.53;3.55;;;25.60;72.30;26.20;101235.00;;;;4975250;28;20199;-53
2023/08/22 10:16:04;;;;;;;4.68;3.40;;;25.60;71.70;26.20;101230.00;;;;5007863;28;20203;-51
2023/08/22 10:18:29;;;;;;;5.45;3.40;;;25.60;71.70;26.20;101241.00;;;;5007740;28;20688;-50
2023/08/22 10:20:56;;;;;;;6.35;3.50;;;25.70;71.80;26.30;101231.00;;;;5011068;28;20179;-52
2023/08/22 10:23:58;;;;;;;3.45;3.10;;;25.70;71.80;26.30;101227.00;;;;5005384;28;20207;-52
2023/08/22 10:26:28;;;;;;;7.22;3.95;;;25.70;71.70;26.30;101222.00;;;;4966693;28;20691;-52
2023/08/22 10:29:18;;;;;;;5.43;3.60;;;25.80;71.80;26.30;101231.00;;;;5001879;28;20569;-52
2023/08/22 10:32:02;;;;;;;4.97;3.20;;;25.80;71.70;26.40;101231.00;;;;5005517;28;20199;-51
2023/08/22 10:34:33;;;;;;;5.05;3.47;;;25.70;71.70;26.40;101226.00;;;;5003189;28;20274;-51
2023/08/22 10:37:00;;;;;;;7.68;3.53;;;25.80;71.70;26.40;101222.00;;;;5008937;28;20172;-52
2023/08/22 10:39:38;;;;;;;6.13;3.30;;;25.80;71.70;26.40;101227.00;;;;5009966;28;20540;-52
2023/08/22 10:42:25;;;;;;;4.63;3.58;;;25.80;71.70;26.40;101227.00;;;;5015218;28;20171;-52
2023/08/22 10:44:58;;;;;;;5.85;3.63;;;25.80;71.60;26.40;101223.00;;;;5007462;28;20196;-52